Terminal Aerodrome Forecast
Issued by NWS Denver/Boulder, CO

Home | Current Version | Previous Version | Text Only | Print | Product List | Glossary On
Versions: 1 2 3 4 5 6 7 8 9 10 11 12 13 14 15 16 17 18 19 20 21 22 23 24 25 26 27 28 29 30 31 32 33 34 35 36 37 38 39 40 41 42 43 44 45 46 47 48 49 50
000
FTUS45 KBOU 292100 AAA
TAFDEN
TAF AMD
KDEN 292100Z 2921/3024 30014KT P6SM VCSH SCT070 BKN120
      TEMPO 2921/2923 VRB20G35KT -TSRA BKN060CB
     FM300000 02010KT P6SM SCT080 BKN120
     FM300300 12008KT P6SM FEW080 SCT140
     FM300500 20010KT P6SM FEW110 SCT200
     FM301700 22006KT P6SM FEW090 SCT150 BKN200=

USA.gov is the U.S. government's official web portal to all federal, state and local government web resources and services.